Time;durP1;ratioP1;P1;durP2;ratioP2;P2;SDS_P1;SDS_P2;PMS_P1;PMS_P2;Temp;Humidity;BMP_temperature;BMP_pressure;BME280_temperature;BME280_humidity;BME280_pressure;Samples;Min_cycle;Max_cycle;Signal;HPM_P1;HPM_P2
2022/05/03 00:00:09;;;;;;;14.43;10.32;;;11.00;99.90;;;;;;4984926;28;20105;-59
2022/05/03 00:02:42;;;;;;;15.82;11.27;;;11.00;99.90;;;;;;4986694;28;20042;-56
2022/05/03 00:05:29;;;;;;;17.58;10.65;;;11.10;99.90;;;;;;4983518;28;20037;-58
2022/05/03 00:08:11;;;;;;;15.32;10.00;;;11.10;99.90;;;;;;4989492;28;20044;-53
2022/05/03 00:10:50;;;;;;;13.23;10.82;;;11.10;99.90;;;;;;4990326;28;20113;-59
2022/05/03 00:13:19;;;;;;;16.80;10.43;;;11.00;99.90;;;;;;4988375;28;20061;-57
2022/05/03 00:15:45;;;;;;;17.95;10.35;;;10.90;99.90;;;;;;4988661;28;20077;-58
2022/05/03 00:18:12;;;;;;;16.80;10.07;;;10.90;99.90;;;;;;4989548;28;20038;-58
2022/05/03 00:20:37;;;;;;;18.73;11.10;;;10.90;99.90;;;;;;4990576;28;20113;-59
2022/05/03 00:23:03;;;;;;;16.98;10.27;;;11.00;99.90;;;;;;4973879;28;20138;-58
2022/05/03 00:25:30;;;;;;;16.88;10.23;;;11.00;99.90;;;;;;4983613;28;20046;-58
2022/05/03 00:27:56;;;;;;;15.77;10.77;;;11.00;99.90;;;;;;4971989;28;20038;-55
2022/05/03 00:30:21;;;;;;;17.67;10.63;;;11.00;99.90;;;;;;4970921;28;20084;-57
2022/05/03 00:32:48;;;;;;;17.77;10.30;;;11.10;99.90;;;;;;4992091;28;20058;-60
2022/05/03 00:35:15;;;;;;;13.88;10.05;;;11.10;99.90;;;;;;4988570;28;20030;-55
2022/05/03 00:37:41;;;;;;;15.13;10.13;;;11.10;99.90;;;;;;4989513;28;20034;-51
2022/05/03 00:40:09;;;;;;;14.23;9.40;;;11.20;99.90;;;;;;4987452;28;20037;-59
2022/05/03 00:42:46;;;;;;;16.05;10.63;;;11.20;99.90;;;;;;5000913;28;20050;-54
2022/05/03 00:46:07;;;;;;;14.23;9.95;;;11.20;99.90;;;;;;4987732;28;20035;-54
2022/05/03 00:49:12;;;;;;;18.20;11.23;;;11.20;99.90;;;;;;4956473;28;20041;-58
2022/05/03 00:51:46;;;;;;;;;;;11.20;99.90;;;;;;4979895;28;20033;-58
2022/05/03 00:54:17;;;;;;;19.52;10.75;;;11.20;99.90;;;;;;4971412;28;19969;-59
2022/05/03 00:57:09;;;;;;;20.27;10.90;;;11.20;99.90;;;;;;4976462;28;20089;-57
2022/05/03 01:00:03;;;;;;;13.15;9.82;;;11.10;99.90;;;;;;4975267;28;20086;-58
2022/05/03 01:05:51;;;;;;;15.98;10.35;;;11.00;99.90;;;;;;5109790;27;20485;-60
2022/05/03 01:08:47;;;;;;;16.70;10.60;;;11.00;99.90;;;;;;5122074;27;20637;-60
2022/05/03 01:11:21;;;;;;;18.13;10.27;;;11.10;99.90;;;;;;5110833;27;20030;-58
2022/05/03 01:14:04;;;;;;;16.17;11.38;;;11.10;99.90;;;;;;5108032;27;20024;-60
2022/05/03 01:17:08;;;;;;;20.35;11.70;;;11.10;99.90;;;;;;5105094;28;20031;-59
2022/05/03 01:19:59;;;;;;;18.13;11.77;;;11.20;99.90;;;;;;5094725;28;20028;-59
2022/05/03 01:23:03;;;;;;;16.75;10.80;;;11.30;99.90;;;;;;5103720;28;20435;-59
2022/05/03 01:25:53;;;;;;;20.63;11.95;;;11.40;99.90;;;;;;5076252;27;20040;-56
2022/05/03 01:28:46;;;;;;;16.38;10.63;;;11.50;99.90;;;;;;5102298;28;20114;-57
2022/05/03 01:31:14;;;;;;;24.70;11.90;;;11.40;99.90;;;;;;5102278;28;20016;-59
2022/05/03 01:33:45;;;;;;;17.08;11.75;;;11.50;99.90;;;;;;5103214;28;20635;-58
2022/05/03 01:36:11;;;;;;;18.58;10.63;;;11.40;99.90;;;;;;5103144;28;20024;-59
2022/05/03 01:38:55;;;;;;;19.10;11.43;;;11.40;99.90;;;;;;5103689;28;20105;-61
2022/05/03 01:41:28;;;;;;;13.98;11.02;;;11.40;99.90;;;;;;5106946;28;20702;-57
2022/05/03 01:44:15;;;;;;;16.27;11.52;;;11.30;99.90;;;;;;5101953;28;20435;-59
2022/05/03 01:46:40;;;;;;;17.17;12.23;;;11.30;99.90;;;;;;5062079;28;20436;-57
2022/05/03 01:52:21;;;;;;;21.77;12.07;;;11.20;99.90;;;;;;5057470;28;20036;-60
2022/05/03 01:54:59;;;;;;;;;;;11.10;99.90;;;;;;5062437;28;20094;-59
2022/05/03 01:57:38;;;;;;;19.63;12.40;;;11.10;99.90;;;;;;5062294;28;19913;-61
2022/05/03 02:00:11;;;;;;;16.05;11.65;;;11.10;99.90;;;;;;5057902;28;20045;-59
2022/05/03 02:03:04;;;;;;;21.83;12.85;;;11.10;99.90;;;;;;5060194;28;20025;-58
2022/05/03 02:05:52;;;;;;;23.17;12.60;;;11.10;99.90;;;;;;5055465;28;20462;-53
2022/05/03 02:08:20;;;;;;;21.52;13.38;;;11.00;99.90;;;;;;5060333;28;20047;-59
2022/05/03 02:10:51;;;;;;;23.73;12.85;;;11.00;99.90;;;;;;5063970;28;20027;-50
2022/05/03 02:17:00;;;;;;;18.98;12.13;;;10.90;99.90;;;;;;5046452;28;20055;-59
2022/05/03 02:20:04;;;;;;;16.48;11.73;;;10.80;99.90;;;;;;5023245;28;20104;-58
2022/05/03 02:22:51;;;;;;;23.75;12.63;;;10.70;99.90;;;;;;5047537;28;20413;-56
2022/05/03 02:25:27;;;;;;;19.15;13.00;;;10.60;99.90;;;;;;5046329;28;20033;-60
2022/05/03 02:28:26;;;;;;;22.75;13.82;;;10.50;99.90;;;;;;5046487;28;20107;-59
2022/05/03 02:30:54;;;;;;;17.15;13.23;;;10.30;99.90;;;;;;5010687;28;20093;-59
2022/05/03 02:33:23;;;;;;;18.77;14.20;;;10.30;99.90;;;;;;5048520;28;20486;-61
2022/05/03 02:35:55;;;;;;;18.98;13.82;;;10.20;99.90;;;;;;5047161;28;20021;-60
2022/05/03 02:38:29;;;;;;;19.83;13.68;;;10.20;99.90;;;;;;5047451;28;20036;-59
2022/05/03 02:40:55;;;;;;;;;;;10.20;99.90;;;;;;5049728;28;20542;-60
2022/05/03 02:43:25;;;;;;;20.77;12.55;;;10.20;99.90;;;;;;5039826;28;20001;-60
2022/05/03 02:46:00;;;;;;;18.33;13.35;;;10.10;99.90;;;;;;5050856;28;20028;-60
2022/05/03 02:48:55;;;;;;;25.00;14.18;;;10.10;99.90;;;;;;5037459;28;20150;-57
2022/05/03 02:51:22;;;;;;;;;;;10.00;99.90;;;;;;5049994;28;20549;-57
2022/05/03 02:53:51;;;;;;;23.98;13.95;;;10.00;99.90;;;;;;5050553;28;19916;-63
2022/05/03 02:56:21;;;;;;;23.73;14.68;;;10.00;99.90;;;;;;5046041;28;20029;-65
2022/05/03 02:59:13;;;;;;;21.80;14.13;;;10.00;99.90;;;;;;5049185;28;20017;-59
2022/05/03 03:02:05;;;;;;;22.27;13.95;;;10.00;99.90;;;;;;5043645;28;20585;-58
2022/05/03 03:05:02;;;;;;;20.02;14.68;;;9.90;99.90;;;;;;5030005;28;20098;-59
2022/05/03 03:07:34;;;;;;;21.85;14.43;;;9.90;99.90;;;;;;5049321;28;20025;-57
2022/05/03 03:10:04;;;;;;;22.85;14.15;;;9.80;99.90;;;;;;5050771;28;20020;-60
2022/05/03 03:12:39;;;;;;;19.83;13.80;;;9.80;99.90;;;;;;5043332;28;20136;-60
2022/05/03 03:15:09;;;;;;;21.27;14.88;;;9.80;99.90;;;;;;5042979;28;20051;-59
2022/05/03 03:17:40;;;;;;;21.20;14.75;;;9.70;99.90;;;;;;5045717;28;20036;-58
2022/05/03 03:20:17;;;;;;;22.73;14.80;;;9.70;99.90;;;;;;5035877;28;20048;-60
2022/05/03 03:22:45;;;;;;;25.02;15.27;;;9.70;99.90;;;;;;5043633;28;20576;-58
2022/05/03 03:25:16;;;;;;;23.83;14.75;;;9.60;99.90;;;;;;5045106;28;20465;-59
2022/05/03 03:27:49;;;;;;;22.30;14.63;;;9.60;99.90;;;;;;5038252;28;20025;-59
2022/05/03 03:30:16;;;;;;;24.73;16.08;;;9.60;99.90;;;;;;5048753;28;20040;-58
2022/05/03 03:32:49;;;;;;;26.85;15.65;;;9.60;99.90;;;;;;5044743;28;20389;-59
2022/05/03 03:35:16;;;;;;;21.25;14.57;;;9.50;99.90;;;;;;5047389;28;20021;-60
2022/05/03 03:37:44;;;;;;;24.42;15.98;;;9.50;99.90;;;;;;5048945;28;20032;-58
2022/05/03 03:40:11;;;;;;;23.40;17.15;;;9.50;99.90;;;;;;5045334;28;20108;-58
2022/05/03 03:42:37;;;;;;;24.70;15.52;;;9.60;99.90;;;;;;5048185;28;20108;-59
2022/05/03 03:45:07;;;;;;;25.73;15.40;;;9.50;99.90;;;;;;5046843;28;20116;-59
2022/05/03 03:47:34;;;;;;;22.50;15.38;;;9.60;99.90;;;;;;5047736;28;20104;-53
2022/05/03 03:50:00;;;;;;;24.40;15.13;;;9.60;99.90;;;;;;5041644;28;20616;-57
2022/05/03 03:52:26;;;;;;;22.20;15.60;;;9.60;99.90;;;;;;5049778;28;20068;-60
2022/05/03 03:54:53;;;;;;;24.08;15.55;;;9.60;99.90;;;;;;5047089;28;20079;-60
2022/05/03 03:57:20;;;;;;;24.48;16.33;;;9.50;99.90;;;;;;5048055;28;20078;-57
2022/05/03 03:59:47;;;;;;;23.90;16.40;;;9.50;99.90;;;;;;5049877;28;20021;-58
2022/05/03 04:02:13;;;;;;;20.08;15.95;;;9.50;99.90;;;;;;5048158;28;20490;-59
2022/05/03 04:04:42;;;;;;;22.83;16.75;;;9.40;99.90;;;;;;5026102;28;20057;-57
2022/05/03 04:07:07;;;;;;;26.83;16.30;;;9.50;99.90;;;;;;5048276;28;20052;-59
2022/05/03 04:09:33;;;;;;;25.65;16.30;;;9.50;99.90;;;;;;5045381;28;20067;-56
2022/05/03 04:12:00;;;;;;;25.02;15.73;;;9.50;99.90;;;;;;5048854;28;20029;-58
2022/05/03 04:14:27;;;;;;;28.08;17.85;;;9.50;99.90;;;;;;5045543;28;20021;-60
2022/05/03 04:16:52;;;;;;;24.02;16.55;;;9.50;99.90;;;;;;5037538;28;20017;-56
2022/05/03 04:19:18;;;;;;;27.52;17.42;;;9.50;99.90;;;;;;5043137;28;20654;-58
2022/05/03 04:21:45;;;;;;;25.52;18.23;;;9.40;99.90;;;;;;5045278;28;20057;-59
2022/05/03 04:24:11;;;;;;;24.45;16.67;;;9.40;99.90;;;;;;5048007;28;20033;-61
2022/05/03 04:26:36;;;;;;;23.50;17.05;;;9.40;99.90;;;;;;5047867;28;20419;-56
2022/05/03 04:29:03;;;;;;;30.92;17.33;;;9.40;99.90;;;;;;5039118;28;20075;-58
2022/05/03 04:31:33;;;;;;;24.58;16.48;;;9.40;99.90;;;;;;5048952;28;20040;-58
2022/05/03 04:34:02;;;;;;;25.33;17.05;;;9.40;99.90;;;;;;5040094;28;20029;-58
2022/05/03 04:36:29;;;;;;;22.25;17.02;;;9.40;99.90;;;;;;5035551;28;20037;-58
2022/05/03 04:38:55;;;;;;;30.75;17.70;;;9.40;99.90;;;;;;5039648;28;20032;-58
2022/05/03 04:41:21;;;;;;;28.00;18.95;;;9.40;99.90;;;;;;5037307;28;20063;-57
2022/05/03 04:43:47;;;;;;;29.48;17.02;;;9.40;99.90;;;;;;5048240;28;20060;-59
2022/05/03 04:46:12;;;;;;;20.30;16.27;;;9.40;99.90;;;;;;5046570;28;20509;-59
2022/05/03 04:48:40;;;;;;;23.73;17.73;;;9.40;99.90;;;;;;5047615;28;20656;-60
2022/05/03 04:51:06;;;;;;;27.42;17.83;;;9.40;99.90;;;;;;5043451;28;20059;-60
2022/05/03 04:53:32;;;;;;;22.00;15.05;;;9.40;99.90;;;;;;5047782;28;20052;-55
2022/05/03 04:55:59;;;;;;;19.42;14.77;;;9.30;99.90;;;;;;5041407;28;20024;-54
2022/05/03 04:58:24;;;;;;;20.92;15.25;;;9.20;99.90;;;;;;5047353;28;20517;-59
2022/05/03 05:00:50;;;;;;;22.58;14.75;;;9.20;99.90;;;;;;5044090;28;20038;-60
2022/05/03 05:03:16;;;;;;;18.48;14.48;;;9.20;99.90;;;;;;5029713;28;20159;-61
2022/05/03 05:05:41;;;;;;;20.90;15.02;;;9.30;99.90;;;;;;5046546;28;20044;-59
2022/05/03 05:08:07;;;;;;;24.90;16.20;;;9.40;99.90;;;;;;5043908;28;20107;-61
2022/05/03 05:10:34;;;;;;;18.52;14.88;;;9.40;99.90;;;;;;5047490;28;20033;-60
2022/05/03 05:13:00;;;;;;;23.45;15.43;;;9.60;99.90;;;;;;5043977;28;20057;-59
2022/05/03 05:15:27;;;;;;;26.08;17.85;;;9.70;99.90;;;;;;5046838;28;20029;-60
2022/05/03 05:17:57;;;;;;;24.83;14.85;;;9.90;99.90;;;;;;5046407;28;20490;-59
2022/05/03 05:20:25;;;;;;;24.13;16.00;;;10.10;99.90;;;;;;5045542;28;20490;-59
2022/05/03 05:22:51;;;;;;;24.60;16.15;;;10.30;99.90;;;;;;5046323;28;20394;-60
2022/05/03 05:25:17;;;;;;;22.83;15.55;;;10.50;99.90;;;;;;5044976;28;20028;-60
2022/05/03 05:27:42;;;;;;;26.15;16.98;;;10.50;99.90;;;;;;5049267;28;20031;-61
2022/05/03 05:30:08;;;;;;;19.02;14.77;;;10.60;99.90;;;;;;5037810;28;20037;-59
2022/05/03 05:32:38;;;;;;;25.08;15.57;;;10.90;99.90;;;;;;5041054;28;20094;-59
2022/05/03 05:35:04;;;;;;;24.73;15.63;;;11.00;99.90;;;;;;5043127;28;20032;-61
2022/05/03 05:37:33;;;;;;;19.88;14.95;;;11.10;99.90;;;;;;5048451;28;20044;-58
2022/05/03 05:39:59;;;;;;;21.58;15.10;;;11.20;99.90;;;;;;5043311;28;20044;-61
2022/05/03 05:42:26;;;;;;;23.67;14.60;;;11.40;99.90;;;;;;5042619;28;20037;-61
2022/05/03 05:44:52;;;;;;;23.50;14.30;;;11.70;99.90;;;;;;5047942;28;20502;-60
2022/05/03 05:47:18;;;;;;;21.30;14.75;;;11.90;99.90;;;;;;5046559;28;20033;-59
2022/05/03 05:49:43;;;;;;;16.00;12.50;;;12.30;99.90;;;;;;5046269;28;20383;-62
2022/05/03 05:54:53;;;;;;;19.50;12.75;;;14.10;99.90;;;;;;5047807;28;20035;-61
2022/05/03 05:57:20;;;;;;;19.50;11.95;;;15.30;98.00;;;;;;5051785;28;20028;-60
2022/05/03 05:59:45;;;;;;;15.90;13.05;;;16.30;96.40;;;;;;5051936;28;20074;-60
2022/05/03 06:02:11;;;;;;;20.88;12.77;;;16.80;94.50;;;;;;5041299;28;20025;-59
2022/05/03 06:04:36;;;;;;;17.17;12.82;;;17.20;93.20;;;;;;5018181;28;20050;-58
2022/05/03 06:07:02;;;;;;;18.35;12.38;;;18.00;92.00;;;;;;5023548;28;20034;-61
2022/05/03 06:09:27;;;;;;;17.45;11.70;;;18.20;91.10;;;;;;5016655;28;20482;-61
2022/05/03 06:11:53;;;;;;;17.08;11.13;;;18.80;89.30;;;;;;5025449;28;20449;-62
2022/05/03 06:14:18;;;;;;;15.63;10.45;;;19.20;87.70;;;;;;5031707;28;20060;-61
2022/05/03 06:16:49;;;;;;;18.17;11.05;;;19.00;87.90;;;;;;5026423;28;20017;-62
2022/05/03 06:19:14;;;;;;;12.05;9.95;;;19.00;87.90;;;;;;5026506;28;20076;-62
2022/05/03 06:21:40;;;;;;;13.18;10.70;;;19.80;87.50;;;;;;5022066;28;20033;-61
2022/05/03 06:24:06;;;;;;;16.23;11.55;;;19.70;85.60;;;;;;5028867;28;20040;-62
2022/05/03 06:26:32;;;;;;;13.20;10.10;;;20.40;84.30;;;;;;5026679;28;20029;-59
2022/05/03 06:28:58;;;;;;;13.30;10.45;;;20.50;82.90;;;;;;5030393;28;20060;-56
2022/05/03 06:31:24;;;;;;;11.77;10.02;;;20.00;82.80;;;;;;5027692;28;20173;-58
2022/05/03 06:33:50;;;;;;;16.92;10.07;;;20.70;83.50;;;;;;5030676;28;20101;-59
2022/05/03 06:36:16;;;;;;;13.23;9.27;;;21.10;83.10;;;;;;5024989;28;20101;-59
2022/05/03 06:38:43;;;;;;;14.38;10.25;;;21.40;83.70;;;;;;5029781;28;20029;-59
2022/05/03 06:41:09;;;;;;;14.15;9.73;;;21.30;80.40;;;;;;5029780;28;20033;-57
2022/05/03 06:43:34;;;;;;;10.52;9.38;;;22.00;80.30;;;;;;5031909;28;20025;-50
2022/05/03 06:46:00;;;;;;;15.13;11.32;;;22.00;80.50;;;;;;5028352;28;20849;-58
2022/05/03 06:48:25;;;;;;;10.70;9.60;;;22.20;77.00;;;;;;5029585;28;20025;-59
2022/05/03 06:50:52;;;;;;;12.02;9.20;;;21.50;77.80;;;;;;5026395;28;20044;-59
2022/05/03 06:53:17;;;;;;;11.68;9.80;;;22.20;77.00;;;;;;5029565;28;20596;-59
2022/05/03 06:55:43;;;;;;;13.68;10.23;;;22.50;75.00;;;;;;5030897;28;20028;-57
2022/05/03 06:58:09;;;;;;;12.18;9.70;;;21.70;74.20;;;;;;5030661;28;20446;-59
2022/05/03 07:00:34;;;;;;;14.55;10.02;;;21.60;76.10;;;;;;5029916;28;20022;-59
2022/05/03 07:03:00;;;;;;;17.90;10.93;;;21.40;76.30;;;;;;5030277;28;20036;-60
2022/05/03 07:05:25;;;;;;;17.33;11.45;;;21.20;75.90;;;;;;5023104;28;20105;-57
2022/05/03 07:07:51;;;;;;;14.25;10.98;;;21.50;79.20;;;;;;5022662;28;20091;-62
2022/05/03 07:10:16;;;;;;;14.48;9.88;;;22.10;76.70;;;;;;5028352;28;20528;-59
2022/05/03 07:12:42;;;;;;;15.75;9.25;;;21.90;75.80;;;;;;5027862;28;20091;-59
2022/05/03 07:15:08;;;;;;;12.15;9.48;;;22.50;75.20;;;;;;5024146;28;20076;-57
2022/05/03 07:23:03;;;;;;;15.38;10.80;;;22.60;75.60;;;;;;5030329;28;20064;-57
2022/05/03 07:25:30;;;;;;;15.90;10.02;;;22.70;73.50;;;;;;5028511;28;20025;-56
2022/05/03 07:27:56;;;;;;;12.25;9.30;;;22.70;74.10;;;;;;5031016;28;20491;-61
2022/05/03 07:30:22;;;;;;;16.23;10.65;;;23.70;73.60;;;;;;5025412;28;20044;-60
2022/05/03 07:32:47;;;;;;;15.02;9.38;;;24.00;72.80;;;;;;5027421;28;20025;-58
2022/05/03 07:35:13;;;;;;;12.15;9.25;;;23.50;72.20;;;;;;5024560;28;20030;-60
2022/05/03 07:37:40;;;;;;;13.57;8.93;;;23.30;72.20;;;;;;5028625;28;20069;-59
2022/05/03 07:40:07;;;;;;;9.57;8.25;;;24.30;69.30;;;;;;5016395;28;20395;-59
2022/05/03 07:42:33;;;;;;;12.43;8.30;;;25.30;67.20;;;;;;5029354;28;20056;-59
2022/05/03 07:44:59;;;;;;;11.95;7.43;;;24.80;66.30;;;;;;5027967;28;20026;-60
2022/05/03 07:47:24;;;;;;;14.82;8.40;;;24.80;66.90;;;;;;5029543;28;20399;-56
2022/05/03 07:49:50;;;;;;;11.68;8.43;;;24.80;65.90;;;;;;5024052;28;20546;-58
2022/05/03 07:52:16;;;;;;;9.13;7.63;;;24.30;66.20;;;;;;5023231;28;20165;-54
2022/05/03 07:54:42;;;;;;;11.10;8.15;;;24.40;67.00;;;;;;5027780;28;20421;-60
2022/05/03 07:57:09;;;;;;;8.75;7.85;;;24.30;66.60;;;;;;5029332;28;20032;-60
2022/05/03 07:59:35;;;;;;;17.73;9.13;;;24.60;66.00;;;;;;5029725;28;20013;-52
2022/05/03 08:02:01;;;;;;;11.93;7.57;;;24.60;65.60;;;;;;5029309;28;20017;-59
2022/05/03 08:04:27;;;;;;;13.23;7.80;;;24.60;64.70;;;;;;5024860;28;20426;-59
2022/05/03 08:06:52;;;;;;;8.80;7.15;;;23.90;66.90;;;;;;5017987;28;20095;-55
2022/05/03 08:09:18;;;;;;;11.60;7.20;;;24.10;66.80;;;;;;5029978;28;20030;-61
2022/05/03 08:11:44;;;;;;;10.10;7.50;;;24.40;65.90;;;;;;5028524;28;20514;-61
2022/05/03 08:14:09;;;;;;;9.68;7.28;;;24.70;65.80;;;;;;5024581;28;20049;-58
2022/05/03 08:16:35;;;;;;;12.57;6.53;;;25.40;63.20;;;;;;5024730;28;20029;-59
2022/05/03 08:19:02;;;;;;;10.45;6.90;;;25.20;63.90;;;;;;5020899;28;20470;-60
2022/05/03 08:21:27;;;;;;;12.60;7.47;;;24.70;65.00;;;;;;5025283;28;20026;-60
2022/05/03 08:23:54;;;;;;;14.60;7.68;;;25.10;63.50;;;;;;5029899;28;20038;-60
2022/05/03 08:26:20;;;;;;;14.02;6.55;;;24.70;65.00;;;;;;5021665;28;20030;-59
2022/05/03 08:28:46;;;;;;;10.68;7.15;;;25.20;62.70;;;;;;5025522;28;20017;-61
2022/05/03 08:31:12;;;;;;;10.35;6.13;;;25.10;63.90;;;;;;5025683;28;20026;-59
2022/05/03 08:33:37;;;;;;;11.13;7.57;;;25.10;62.70;;;;;;5025552;28;20065;-57
2022/05/03 08:36:04;;;;;;;9.13;7.40;;;25.30;62.00;;;;;;5025650;28;20037;-58
2022/05/03 08:44:00;;;;;;;13.48;7.60;;;25.30;61.50;;;;;;5027352;28;20043;-57
2022/05/03 08:46:26;;;;;;;8.35;6.53;;;25.00;61.60;;;;;;5028175;28;20037;-59
2022/05/03 08:49:02;;;;;;;11.02;6.78;;;24.80;63.70;;;;;;5018758;28;20045;-61
2022/05/03 08:51:29;;;;;;;16.05;7.72;;;24.80;62.90;;;;;;5023818;28;20017;-59
2022/05/03 08:53:55;;;;;;;12.57;8.23;;;25.00;62.40;;;;;;5025891;28;20108;-59
2022/05/03 08:56:22;;;;;;;12.73;7.63;;;24.70;61.10;;;;;;5029622;28;20106;-60
2022/05/03 08:58:47;;;;;;;12.95;7.97;;;24.40;62.50;;;;;;5026661;28;20483;-60
2022/05/03 09:01:13;;;;;;;9.30;7.70;;;24.50;63.00;;;;;;5029611;28;20207;-60
2022/05/03 09:03:39;;;;;;;13.20;8.00;;;24.20;61.80;;;;;;5027189;28;20423;-58
2022/05/03 09:06:05;;;;;;;12.32;7.93;;;24.40;62.20;;;;;;5022649;28;20018;-59
2022/05/03 09:08:32;;;;;;;13.57;7.95;;;24.70;61.80;;;;;;5024176;28;20038;-59
2022/05/03 09:10:59;;;;;;;9.65;7.80;;;24.50;61.30;;;;;;5025581;28;20057;-59
2022/05/03 09:13:28;;;;;;;8.40;6.88;;;24.50;62.70;;;;;;5023410;28;20117;-59
2022/05/03 09:15:56;;;;;;;11.73;7.30;;;25.00;61.00;;;;;;5024778;28;20516;-58
2022/05/03 09:18:23;;;;;;;9.80;7.40;;;25.00;61.20;;;;;;5029511;28;20030;-60
2022/05/03 09:23:49;;;;;;;11.10;7.57;;;25.70;59.00;;;;;;5023203;28;20114;-52
2022/05/03 09:26:20;;;;;;;13.00;7.72;;;25.60;59.70;;;;;;5031468;28;20100;-60
2022/05/03 09:28:55;;;;;;;8.10;7.18;;;25.50;59.10;;;;;;5030248;28;20030;-60
2022/05/03 09:31:28;;;;;;;9.02;7.60;;;25.10;59.90;;;;;;5029273;28;20021;-60
2022/05/03 09:33:54;;;;;;;11.45;7.32;;;25.20;58.80;;;;;;5023505;28;20074;-59
2022/05/03 09:36:20;;;;;;;11.27;6.90;;;25.40;60.50;;;;;;5018422;28;20550;-59
2022/05/03 09:38:51;;;;;;;10.52;7.18;;;25.10;60.50;;;;;;5023562;28;20029;-62
2022/05/03 09:41:17;;;;;;;9.27;6.88;;;25.20;59.90;;;;;;5030712;28;20025;-60
2022/05/03 09:44:05;;;;;;;9.70;7.60;;;25.70;58.50;;;;;;5026755;28;20506;-61
2022/05/03 09:46:52;;;;;;;10.68;7.10;;;25.10;60.00;;;;;;5030408;28;20029;-59
2022/05/03 09:49:36;;;;;;;8.40;6.75;;;24.90;59.30;;;;;;5028580;28;20040;-60
2022/05/03 09:52:03;;;;;;;9.13;7.45;;;25.50;59.50;;;;;;5032470;28;20021;-61
2022/05/03 09:54:45;;;;;;;9.43;7.38;;;25.20;59.20;;;;;;5031304;28;20160;-60
2022/05/03 09:57:15;;;;;;;13.48;7.50;;;25.30;58.70;;;;;;5027660;28;20022;-61
2022/05/03 09:59:41;;;;;;;16.48;7.50;;;25.20;59.30;;;;;;5029626;28;20118;-59
2022/05/03 10:02:07;;;;;;;8.57;6.93;;;25.00;58.80;;;;;;5023626;28;20029;-59
2022/05/03 10:04:33;;;;;;;10.82;7.70;;;24.70;61.40;;;;;;5024020;28;20478;-58
2022/05/03 10:06:58;;;;;;;11.02;7.80;;;24.50;59.10;;;;;;5026338;28;20021;-58
2022/05/03 10:09:24;;;;;;;11.02;8.00;;;24.30;59.20;;;;;;5033009;28;20642;-60
2022/05/03 10:11:51;;;;;;;12.68;8.70;;;23.40;60.50;;;;;;5032384;28;20355;-59
2022/05/03 10:14:16;;;;;;;15.23;9.48;;;23.00;60.50;;;;;;5020265;28;20356;-58
2022/05/03 10:22:12;;;;;;;12.25;9.43;;;22.60;59.20;;;;;;5028591;28;20041;-56
2022/05/03 10:24:54;;;;;;;13.43;9.02;;;22.30;60.50;;;;;;5025926;28;20033;-60
2022/05/03 10:27:25;;;;;;;10.32;8.40;;;22.20;62.30;;;;;;5030358;28;20030;-60
2022/05/03 10:30:20;;;;;;;16.05;8.73;;;22.40;61.30;;;;;;5029059;28;20014;-60
2022/05/03 10:33:04;;;;;;;12.75;9.82;;;22.10;61.60;;;;;;5024731;28;20386;-60
2022/05/03 10:35:36;;;;;;;13.02;9.32;;;22.10;60.30;;;;;;5025492;28;20049;-53
2022/05/03 10:38:04;;;;;;;13.73;9.15;;;21.70;62.00;;;;;;5028732;28;20562;-59
2022/05/03 10:40:39;;;;;;;12.00;8.40;;;21.30;61.70;;;;;;5030718;28;20037;-59
2022/05/03 10:43:09;;;;;;;14.57;8.75;;;21.50;63.40;;;;;;5029649;28;20029;-54
2022/05/03 10:45:52;;;;;;;11.93;7.70;;;21.70;61.10;;;;;;5033039;28;20445;-54
2022/05/03 10:48:33;;;;;;;14.40;8.25;;;21.90;62.40;;;;;;5026714;28;20036;-59
2022/05/03 10:51:03;;;;;;;14.68;9.25;;;22.00;61.90;;;;;;5020039;28;20034;-58
2022/05/03 10:53:34;;;;;;;17.25;9.07;;;22.00;60.10;;;;;;5018876;28;20037;-58
2022/05/03 10:56:02;;;;;;;14.18;7.85;;;21.80;63.40;;;;;;5022799;28;20037;-59
2022/05/03 10:58:30;;;;;;;10.98;8.32;;;21.90;61.80;;;;;;5031457;28;20025;-56
2022/05/03 11:01:19;;;;;;;14.77;9.18;;;22.00;60.10;;;;;;5025616;28;20671;-60
2022/05/03 11:03:48;;;;;;;10.90;8.23;;;21.90;60.60;;;;;;5042184;28;20125;-57
2022/05/03 11:06:19;;;;;;;11.32;7.95;;;21.80;61.30;;;;;;5021240;28;20034;-56
2022/05/03 11:11:50;;;;;;;9.95;7.13;;;21.30;62.10;;;;;;5029025;28;20034;-56
2022/05/03 11:14:16;;;;;;;11.95;7.78;;;21.40;63.10;;;;;;5025705;28;20025;-60
2022/05/03 11:16:42;;;;;;;12.25;7.20;;;21.40;62.10;;;;;;5029678;28;20036;-55
2022/05/03 11:19:10;;;;;;;15.93;7.78;;;21.50;63.10;;;;;;5022350;28;20072;-60
2022/05/03 11:21:36;;;;;;;13.07;7.57;;;21.40;62.50;;;;;;5020543;28;20037;-51
2022/05/03 11:24:02;;;;;;;10.30;7.95;;;21.50;62.30;;;;;;5028993;28;20041;-59
2022/05/03 11:26:28;;;;;;;9.77;7.93;;;21.00;63.10;;;;;;5031688;28;20021;-60
2022/05/03 11:28:57;;;;;;;13.90;8.52;;;21.20;62.40;;;;;;5021932;28;20560;-56
2022/05/03 11:31:25;;;;;;;9.80;7.63;;;20.90;62.30;;;;;;5017996;28;20492;-58
2022/05/03 11:33:57;;;;;;;11.95;8.35;;;20.90;63.90;;;;;;5031957;28;20022;-58
2022/05/03 11:36:23;;;;;;;14.48;7.72;;;21.10;63.40;;;;;;5023632;28;20033;-58
2022/05/03 11:38:54;;;;;;;14.77;8.10;;;20.70;63.10;;;;;;5028565;28;20025;-57
2022/05/03 11:41:25;;;;;;;14.77;8.82;;;20.80;63.70;;;;;;5027995;28;20514;-57
2022/05/03 11:43:51;;;;;;;12.55;9.27;;;20.60;64.10;;;;;;5029759;28;20037;-59
2022/05/03 11:46:18;;;;;;;16.20;9.75;;;20.70;62.00;;;;;;5023868;28;20145;-59
2022/05/03 11:48:45;;;;;;;12.07;8.98;;;20.80;62.50;;;;;;5030731;28;20021;-58
2022/05/03 11:56:46;;;;;;;14.52;8.68;;;21.00;64.10;;;;;;5025857;28;20032;-59
2022/05/03 11:59:15;;;;;;;11.70;8.68;;;21.10;62.10;;;;;;5020367;28;20030;-54
2022/05/03 12:01:41;;;;;;;11.13;8.82;;;21.10;62.40;;;;;;5026575;28;20040;-57
2022/05/03 12:04:08;;;;;;;10.75;9.30;;;21.00;61.60;;;;;;5023861;28;20029;-57
2022/05/03 12:06:45;;;;;;;12.02;9.93;;;20.70;61.90;;;;;;5022046;28;20040;-59
2022/05/03 12:09:20;;;;;;;10.90;8.85;;;20.50;64.20;;;;;;5023022;28;20509;-58
2022/05/03 12:14:42;;;;;;;17.67;9.82;;;20.60;62.90;;;;;;5020527;28;20087;-59
2022/05/03 12:17:08;;;;;;;10.43;8.43;;;20.70;62.30;;;;;;5020478;28;20402;-57
2022/05/03 12:19:35;;;;;;;11.60;8.25;;;20.60;63.30;;;;;;5023460;28;20411;-55
2022/05/03 12:22:12;;;;;;;12.55;8.70;;;20.70;63.10;;;;;;5024999;28;20044;-57
2022/05/03 12:24:41;;;;;;;14.93;10.13;;;20.70;62.90;;;;;;5018833;28;20034;-58
2022/05/03 12:27:15;;;;;;;12.68;9.18;;;20.80;61.10;;;;;;5018198;28;20096;-59
2022/05/03 12:29:47;;;;;;;12.55;8.60;;;20.50;63.30;;;;;;5020477;28;20040;-59
2022/05/03 12:32:18;;;;;;;14.65;10.90;;;20.30;64.10;;;;;;5015256;28;20030;-59
2022/05/03 12:35:01;;;;;;;19.25;9.00;;;20.10;65.50;;;;;;5017112;28;20023;-56
2022/05/03 12:37:27;;;;;;;13.05;9.63;;;20.30;66.10;;;;;;5024649;28;20030;-57
2022/05/03 12:39:59;;;;;;;15.13;9.88;;;20.40;63.70;;;;;;5018473;28;20088;-57
2022/05/03 12:42:25;;;;;;;14.40;9.38;;;20.30;63.30;;;;;;5019681;28;20044;-56
2022/05/03 12:44:59;;;;;;;15.95;9.20;;;20.30;63.80;;;;;;5017375;28;20026;-57
2022/05/03 12:47:26;;;;;;;;;;;20.40;66.40;;;;;;5017304;28;20032;-57
2022/05/03 12:49:52;;;;;;;13.43;9.25;;;20.60;63.30;;;;;;5015062;28;20638;-54
2022/05/03 12:52:18;;;;;;;10.77;8.82;;;20.50;63.10;;;;;;5017499;28;20076;-57
2022/05/03 12:54:45;;;;;;;11.60;9.70;;;20.40;63.20;;;;;;5016871;28;20017;-57
2022/05/03 12:59:56;;;;;;;13.73;9.18;;;20.00;62.60;;;;;;5013867;28;20095;-59
2022/05/03 13:02:25;;;;;;;14.10;9.23;;;20.00;63.10;;;;;;5014938;28;20041;-59
2022/05/03 13:04:51;;;;;;;12.85;9.48;;;19.90;63.30;;;;;;5020774;28;20105;-58
2022/05/03 13:07:17;;;;;;;11.68;9.27;;;20.00;63.80;;;;;;5024947;28;20462;-58
2022/05/03 13:09:43;;;;;;;10.90;8.10;;;19.90;64.90;;;;;;5022378;28;20095;-55
2022/05/03 13:12:09;;;;;;;10.93;8.05;;;20.00;65.90;;;;;;5019096;28;20404;-57
2022/05/03 13:14:35;;;;;;;15.38;8.95;;;20.10;64.70;;;;;;5022350;28;20648;-59
2022/05/03 13:17:01;;;;;;;13.77;9.30;;;20.00;63.20;;;;;;5024783;28;20037;-50
2022/05/03 13:19:27;;;;;;;13.18;8.70;;;20.00;62.30;;;;;;5028514;28;20029;-56
2022/05/03 13:21:56;;;;;;;11.85;9.50;;;20.00;64.40;;;;;;5018797;28;20465;-57
2022/05/03 13:24:22;;;;;;;19.52;9.82;;;19.90;62.20;;;;;;5017108;28;20487;-58
2022/05/03 13:26:48;;;;;;;12.55;9.43;;;19.70;62.50;;;;;;5021221;28;20394;-58
2022/05/03 13:29:17;;;;;;;14.18;10.27;;;19.70;62.70;;;;;;5024401;28;20029;-57
2022/05/03 13:31:46;;;;;;;16.45;9.27;;;19.70;62.00;;;;;;5029817;28;20434;-58
2022/05/03 13:34:13;;;;;;;13.15;9.73;;;19.70;62.50;;;;;;5029525;28;20040;-57
2022/05/03 13:42:09;;;;;;;13.18;8.98;;;19.80;63.50;;;;;;5016880;28;20092;-55